Home   Weather   Austria   Hallein   Past weeks
Flag for Austria

Past Weather in Hallein, Salzburg, Austria — Yesterday and Last 2 Weeks

Currently: 54 °F. Cool. (Weather station: Salzburg-Flughafen, Austria). See more current weather

Past Weather in Hallein — Graph

°F

Hallein Temperature Yesterday

Maximum temperature yesterday: 68 °F (at 1:50 pm)
Minimum temperature yesterday: 45 °F (at 1:50 am)
Average temperature yesterday: 57 °F

High & Low Weather Summary for the Past Weeks

 TemperatureHumidityPressure
High73 °F (Apr 1, 1:20 pm)100% (Apr 5, 9:50 pm)30.54 "Hg (Apr 5, 9:50 pm)
Low27 °F (Apr 6, 7:20 am)23% (Apr 5, 4:50 pm)29.59 "Hg (Apr 5, 3:50 pm)
Average47 °F61%30.12 "Hg
* Reported Mar 27 10:20 pm — Apr 11 11:20 pm, Hallein. Weather by CustomWeather, © 2021

Note: Actual official high and low records may vary slightly from our data, if they occured in-between our weather recording intervals... More about our weather records

Hallein Weather History for the Previous 24 Hours

Scroll right to see more
 ConditionsComfort  
Time TempWeatherWind HumidityBarometerVisibility
11:20 pm
Sun, Apr 11
55 °FRefreshingly cool.12 mph44%29.89 "HgN/A
10:50 pm57 °FRefreshingly cool.15 mph41%29.86 "HgN/A
10:20 pm57 °FRefreshingly cool.12 mph41%29.86 "HgN/A
9:50 pm55 °FRefreshingly cool.9 mph44%29.86 "HgN/A
9:20 pm57 °FRefreshingly cool.12 mph41%29.86 "HgN/A
8:50 pm57 °FPassing clouds.12 mph41%29.86 "HgN/A
7:50 pm61 °FPassing clouds.12 mph36%29.83 "HgN/A
7:20 pm63 °FPassing clouds.13 mph37%29.80 "HgN/A
6:50 pm64 °FPassing clouds.10 mph34%29.80 "HgN/A
6:20 pm68 °FPassing clouds.9 mph28%29.80 "HgN/A
5:50 pm68 °FScattered clouds.8 mph33%29.80 "HgN/A
5:20 pm66 °FPartly sunny.8 mph32%29.80 "HgN/A
4:50 pm66 °FPartly sunny.8 mph37%29.80 "HgN/A
4:20 pm68 °FPartly sunny.9 mph30%29.80 "HgN/A
3:50 pm68 °FPartly sunny.9 mph30%29.80 "HgN/A
3:20 pm68 °FPartly sunny.9 mph30%29.80 "HgN/A
2:50 pm68 °FScattered clouds.8 mph26%29.80 "HgN/A
2:20 pm68 °FPassing clouds.8 mph35%29.80 "HgN/A
1:50 pm68 °FPassing clouds.9 mph33%29.80 "HgN/A
1:20 pm66 °FPassing clouds.10 mph32%29.80 "HgN/A
12:50 pm66 °FPassing clouds.10 mph35%29.80 "HgN/A
12:20 pm64 °FSunny.13 mph34%29.83 "Hg10 mi
11:50 am64 °FPassing clouds.12 mph37%29.83 "HgN/A
11:20 am63 °FPassing clouds.10 mph42%29.83 "HgN/A
10:50 am61 °FPassing clouds.10 mph42%29.86 "HgN/A
10:20 am57 °FPassing clouds.13 mph44%29.86 "HgN/A
9:50 am57 °FPassing clouds.9 mph48%29.86 "HgN/A
9:20 am52 °FPassing clouds.7 mph58%29.86 "HgN/A
8:50 am50 °FPassing clouds.9 mph62%29.86 "HgN/A
8:20 am50 °FPassing clouds.8 mph58%29.86 "HgN/A
7:50 am48 °FPassing clouds.9 mph62%29.86 "HgN/A
7:20 am46 °FPassing clouds.9 mph62%29.86 "HgN/A
6:50 am46 °FPassing clouds.9 mph62%29.86 "HgN/A
6:20 am46 °FPassing clouds.10 mph62%29.86 "HgN/A
5:50 am45 °FClear.10 mph66%29.86 "Hg10 mi
5:20 am46 °FPassing clouds.9 mph62%29.86 "HgN/A
4:50 am48 °FPassing clouds.9 mph58%29.86 "HgN/A
4:20 am48 °FClear.10 mph58%29.86 "HgN/A
3:50 am48 °FClear.9 mph58%29.86 "HgN/A
3:20 am46 °FClear.9 mph62%29.89 "HgN/A
2:50 am48 °FClear.12 mph58%29.89 "HgN/A
2:20 am46 °FClear.9 mph62%29.89 "HgN/A
1:50 am45 °FClear.7 mph66%29.92 "HgN/A
1:20 am46 °FClear.7 mph62%29.92 "HgN/A
12:50 am46 °FClear.7 mph66%29.92 "HgN/A
12:20 am46 °FClear.7 mph66%29.92 "HgN/A
Weather by CustomWeather, © 2021

See weather overview